Rosita, Texas
Current Conditions -  °F | °C
As of 1:56 PM on Friday 28 Nov 2014 (Local Time) from KNOG Reporting Station
Clear Clear  
Wind Chill: 77°   Ceiling: Unl
Heat Index: 78°   Visibility: 10mi
Dew Point: 50°   Wind: 14mph
Humidity: 39%   Direction: 210°SSW
Pressure: 30.19"   Gusts: NA
Location:  27.8895°N, 98.3467°W
Report Text: KNOG 281956Z AUTO 21012KT 10SM CLR 25/10 A3019 RMK AO2 SLP202 T02500100 $
Loading
Personal Weather Stations






























Interactive Weather Map New forecast layout! Learn more

10-Day Weather Forecast

Advertisements
Track Severe Weather on mobile